This is the latest recevied weather packets stored in our database for station/object PY2FGD-13. If no packets are shown the sender has not sent any weather packets the latest 10 day(s).
| Time | Temp. | Humidity | Pressure | Rain* | Wind** | Luminosity | Snow |
|---|---|---|---|---|---|---|---|
| 1777195652 | 23.33° C | 67% | 1012.1 hPa | - | - | - | - |
| 1777191468 | 23.89° C | 66% | 1011 hPa | - | - | - | - |
| 1777190252 | 23.89° C | 67% | 1010.9 hPa | - | - | - | - |
| 1777187251 | 23.89° C | 67% | 1011 hPa | - | - | - | - |
| 1777186069 | 23.89° C | 67% | 1011.1 hPa | - | - | - | - |
| 1777185452 | 23.89° C | 67% | 1011.1 hPa | - | - | - | - |
| 1777184252 | 23.89° C | 66% | 1011.1 hPa | - | - | - | - |
| 1777176452 | 24.44° C | 67% | 1011.4 hPa | - | - | - | - |
| 1777175867 | 24.44° C | 67% | 1011.5 hPa | - | - | - | - |
| 1777171652 | 24.44° C | 66% | 1012.1 hPa | - | - | - | - |
| 1777170452 | 24.44° C | 66% | 1012.2 hPa | - | - | - | - |
| 1777162652 | 24.44° C | 65% | 1012.3 hPa | - | - | - | - |
| 1777160851 | 24.44° C | 65% | 1012.2 hPa | - | - | - | - |
| 1777159652 | 24.44° C | 64% | 1012.2 hPa | - | - | - | - |
| 1777158451 | 24.44° C | 65% | 1012.1 hPa | - | - | - | - |
| 1777157853 | 24.44° C | 66% | 1012 hPa | - | - | - | - |
| 1777152451 | 24.44° C | 61% | 1011.2 hPa | - | - | - | - |
| 1777151851 | 24.44° C | 60% | 1011.2 hPa | - | - | - | - |
| 1777141051 | 24.44° C | 59% | 1010.7 hPa | - | - | - | - |
| 1777140453 | 24.44° C | 59% | 1010.7 hPa | - | - | - | - |
| 1777136251 | 23.89° C | 64% | 1011.4 hPa | - | - | - | - |
| 1777129651 | 23.89° C | 70% | 1013.1 hPa | - | - | - | - |
| 1777129055 | 23.89° C | 70% | 1013.3 hPa | - | - | - | - |
| 1777123051 | 23.33° C | 72% | 1015 hPa | - | - | - | - |
| 1777121251 | 22.78° C | 71% | 1015.2 hPa | - | - | - | - |
* Rain since midnight (hover to see other rain measurements)
** Current wind speed in m/s (hover to see current wind gust speed)